Dublin, NH (03444)

6:42 AM EDT on May 28, 2015 (GMT -0400)
West Peterborough | | Change Station
CLOSE
Current Station
Personal Weather Station
Location: Peterborough, NH
Elevation: 935 ft
Nearby Weather Stations

Elev 935 ft 42.88 °N, 71.99 °W | Updated 11 minutes ago

Overcast
Overcast
65.5 °F
Feels Like 65.5 °F
N
3.1
Wind Variable Wind from SW

Today
High -- | Low -- °F
--% Chance of Precip.
Yesterday
High -- | Low -- °F
Precip. -- in
5:14 AM 8:16 PM
Waxing Gibbous, 75% visible
Pressure 30.14 in
Visibility 7.0 miles
Clouds Overcast 500 ft
Dew Point 65 °F
Humidity 99%
Rainfall 0.01 in
Snow Depth Not available.
UV 0 out of 12
Pollen 9.10 out of 12
Air Quality Not available.
Flu Activity Sporadic
METAR KAFN 280952Z AUTO VRB04KT 7SM OVC005 19/18 A3013 RMK AO2 SLP204 T01890178

More Conditions Fewer Conditions

Pressure 30.14 in
Visibility 7.0 miles
Clouds Overcast 500 ft
Dew Point 65 °F
Humidity 99%
Rainfall 0.01 in
Snow Depth Not available.
UV 0 out of 12
Pollen 9.10 out of 12
Air Quality Not available.
Flu Activity Sporadic
METAR KAFN 280952Z AUTO VRB04KT 7SM OVC005 19/18 A3013 RMK AO2 SLP204 T01890178

More Conditions Fewer Conditions

10-Day Weather Forecast

Almanac

Astronomy

May. 28, 2015 Rise Set
Actual Time
Civil Twilight
Nautical Twilight
Astronomical Twilight
Moon
Length of Visible Light
Length of Day
Tomorrow will be .
, % of the Moon is Illuminated

Today's Extremes

State Highs State Lows

Community

WunderPhotos

Upload Photos

1,824,946 photos uploaded!

WunderBlogs® & News

Nearby

Air Quality

  Air Quality AQ Index Pollutant
Not available.

Snow Depth

Station Depth Elevation

Earthquake Activity

City Distance Mag. Time & Date
Minimum magnitude displayed is 2.5.

Coastal Water Temperatures

Place Temperature

Stations

Nearby Weather Stations

Station Location Temp. Windchill Dew Point Humidity Wind Precip. Elev Updated Type